| time (UTC) | temp F | wind direction | speed MPH | gust MPH | rain 1hr in | rain 24hr in | rain mn in | humidity % | barometer mb |
| 20260901213022 | 76 | 195 | 0.0 | 0.0 | 0.00 | 1.25 | 1.25 | 89 | 1013.5 |
| 20260901211517 | 77 | 195 | 0.0 | 0.0 | 0.00 | 1.25 | 1.25 | 87 | 1013.4 |
| 20260901210016 | 78 | 195 | 0.0 | 0.0 | 0.00 | 1.25 | 1.25 | 87 | 1013.4 |
| 20260901204520 | 78 | 195 | 0.0 | 0.0 | 0.00 | 1.25 | 1.25 | 86 | 1013.4 |
| 20260901203015 | 78 | 195 | 0.0 | 0.0 | 0.00 | 1.25 | 1.25 | 85 | 1013.4 |
| 20260901201513 | 78 | 195 | 0.0 | 0.0 | 0.00 | 1.25 | 1.25 | 87 | 1013.2 |
| 20260901200025 | 78 | 195 | 0.0 | 0.0 | 0.00 | 1.25 | 1.25 | 86 | 1013.4 |
| 20260901194512 | 79 | 195 | 0.0 | 0.0 | 0.00 | 1.25 | 1.25 | 86 | 1013.4 |
| 20260901193011 | 78 | 195 | 0.0 | 0.0 | 0.00 | 1.25 | 1.25 | 86 | 1013.5 |
| 20260901191518 | 78 | 195 | 0.0 | 0.0 | 0.00 | 1.25 | 1.25 | 89 | 1013.4 |
| 20260901190005 | 77 | 195 | 0.0 | 0.0 | 0.00 | 1.25 | 1.25 | 92 | 1013.4 |
| 20260901184507 | 76 | 206 | 0.0 | 0.0 | 0.00 | 1.25 | 1.25 | 93 | 1013.3 |
| 20260901183001 | 75 | 198 | 0.0 | 0.0 | 0.00 | 1.25 | 1.25 | 94 | 1013.5 |
| 20260901181618 | 75 | 228 | 0.0 | 0.0 | 0.00 | 1.25 | 1.25 | 95 | 1013.6 |
| 20260901180057 | 74 | 229 | 0.0 | 0.0 | 0.00 | 1.25 | 1.25 | 95 | 1013.6 |
| 20260901174556 | 73 | 227 | 0.0 | 0.0 | 0.00 | 1.25 | 1.25 | 95 | 1013.6 |
| 20260901173053 | 73 | 246 | 0.0 | 0.0 | 0.01 | 1.25 | 1.25 | 95 | 1013.6 |
| 20260901171559 | 72 | 244 | 0.0 | 0.0 | 0.02 | 1.25 | 1.25 | 95 | 1013.7 |
| 20260901170056 | 72 | 244 | 0.0 | 0.0 | 0.02 | 1.25 | 1.25 | 95 | 1013.7 |
| 20260901164545 | 71 | 246 | 0.0 | 0.0 | 0.03 | 1.25 | 1.25 | 95 | 1013.7 |
| 20260901163045 | 71 | 249 | 0.0 | 0.0 | 0.05 | 1.24 | 1.24 | 95 | 1014.1 |
| 20260901161540 | 71 | 249 | 0.0 | 0.0 | 0.07 | 1.23 | 1.23 | 95 | 1014.2 |
| 20260901160057 | 71 | 246 | 0.0 | 0.0 | 0.08 | 1.23 | 1.23 | 95 | 1014.6 |
| 20260901154536 | 70 | 246 | 0.0 | 0.0 | 0.07 | 1.22 | 1.22 | 94 | 1014.9 |
| 20260901153035 | 70 | 246 | 0.0 | 0.0 | 0.05 | 1.19 | 1.19 | 94 | 1015.0 |
| 20260901151540 | 70 | 246 | 0.0 | 0.0 | 0.04 | 1.15 | 1.15 | 94 | 1015.0 |
| 20260901150040 | 70 | 248 | 0.0 | 0.0 | 0.15 | 1.14 | 1.14 | 94 | 1014.8 |
| 20260901144539 | 70 | 251 | 0.0 | 0.0 | 0.20 | 1.15 | 1.14 | 95 | 1015.0 |
| 20260901143031 | 70 | 251 | 0.0 | 0.0 | 0.20 | 1.14 | 1.13 | 94 | 1015.1 |
| 20260901141530 | 70 | 249 | 0.0 | 0.0 | 0.18 | 1.12 | 1.12 | 94 | 1014.9 |
| 20260901140043 | 69 | 249 | 0.0 | 0.0 | 0.01 | 0.96 | 0.95 | 94 | 1015.6 |
| 20260901134529 | 70 | 249 | 0.0 | 0.0 | 0.01 | 0.96 | 0.95 | 94 | 1015.1 |
| 20260901133028 | 69 | 249 | 0.0 | 0.0 | 0.00 | 0.95 | 0.94 | 94 | 1014.8 |
| 20260901131536 | 69 | 249 | 0.0 | 0.0 | 0.00 | 0.95 | 0.94 | 94 | 1015.0 |
| 20260901130030 | 69 | 249 | 0.0 | 0.0 | 0.00 | 0.95 | 0.94 | 94 | 1014.9 |
| 20260901124526 | 69 | 249 | 0.0 | 0.0 | 0.00 | 0.95 | 0.94 | 94 | 1014.7 |
| 20260901123023 | 69 | 249 | 0.0 | 0.0 | 0.00 | 0.95 | 0.94 | 94 | 1014.9 |
| 20260901121522 | 69 | 249 | 0.0 | 0.0 | 0.00 | 0.95 | 0.94 | 94 | 1015.1 |
| 20260901120021 | 68 | 249 | 0.0 | 0.0 | 0.00 | 0.95 | 0.94 | 94 | 1015.2 |
| 20260901114518 | 68 | 249 | 0.0 | 0.0 | 0.00 | 0.95 | 0.94 | 94 | 1015.2 |
| 20260901113018 | 68 | 249 | 0.0 | 0.0 | 0.00 | 0.95 | 0.94 | 94 | 1014.7 |
| 20260901111518 | 68 | 249 | 0.0 | 0.0 | 0.00 | 0.95 | 0.94 | 94 | 1014.9 |
| 20260901110015 | 68 | 249 | 0.0 | 0.0 | 0.00 | 0.95 | 0.94 | 94 | 1015.1 |
| 20260901104515 | 68 | 249 | 0.0 | 0.0 | 0.00 | 0.95 | 0.94 | 94 | 1015.2 |
| 20260901103013 | 68 | 249 | 0.0 | 0.0 | 0.00 | 0.95 | 0.94 | 94 | 1015.2 |
| 20260901101530 | 68 | 249 | 0.0 | 0.0 | 0.00 | 0.95 | 0.94 | 94 | 1015.0 |
| 20260901100113 | 68 | 249 | 0.0 | 0.0 | 0.00 | 0.95 | 0.94 | 94 | 1014.8 |
| 20260901094520 | 68 | 249 | 0.0 | 0.0 | 0.00 | 0.95 | 0.94 | 94 | 1014.9 |
| 20260901093010 | 68 | 249 | 0.0 | 0.0 | 0.00 | 0.95 | 0.94 | 94 | 1014.9 |
| 20260901091510 | 68 | 249 | 0.0 | 0.0 | 0.00 | 0.95 | 0.94 | 94 | 1015.0 |
| 20260901090011 | 68 | 249 | 0.0 | 0.0 | 0.00 | 0.95 | 0.94 | 94 | 1015.0 |
| 20260901084508 | 68 | 249 | 0.0 | 0.0 | 0.01 | 0.95 | 0.94 | 94 | 1015.2 |
| 20260901083006 | 68 | 249 | 0.0 | 0.0 | 0.01 | 0.95 | 0.94 | 94 | 1015.3 |
| 20260901081507 | 68 | 249 | 0.0 | 0.0 | 0.01 | 0.95 | 0.94 | 93 | 1015.4 |
| 20260901080002 | 68 | 249 | 0.0 | 0.0 | 0.01 | 0.95 | 0.94 | 93 | 1015.5 |
| 20260901074502 | 68 | 249 | 0.0 | 0.0 | 0.00 | 0.94 | 0.93 | 93 | 1015.6 |
| 20260901073002 | 68 | 234 | 0.0 | 0.0 | 0.00 | 0.94 | 0.93 | 93 | 1015.6 |
| 20260901071600 | 67 | 234 | 0.0 | 0.0 | 0.01 | 0.94 | 0.93 | 93 | 1015.5 |
| 20260901070125 | 68 | 234 | 0.0 | 0.0 | 0.09 | 0.94 | 0.93 | 93 | 1015.7 |
| 20260901064608 | 68 | 234 | 0.0 | 0.0 | 0.21 | 0.94 | 0.93 | 93 | 1015.8 |
| 20260901063102 | 68 | 205 | 0.0 | 0.0 | 0.43 | 0.94 | 0.93 | 93 | 1015.7 |
| 20260901061605 | 68 | 209 | 0.0 | 0.0 | 0.54 | 0.92 | 0.91 | 93 | 1016.1 |
| 20260901060052 | 68 | 207 | 0.0 | 0.0 | 0.53 | 0.85 | 0.84 | 93 | 1016.1 |
| 20260901054553 | 68 | 207 | 0.0 | 0.0 | 0.52 | 0.73 | 0.72 | 92 | 1016.1 |
| 20260901053055 | 68 | 211 | 0.0 | 0.0 | 0.37 | 0.50 | 0.49 | 92 | 1016.3 |
| 20260901051548 | 68 | 211 | 0.0 | 0.0 | 0.30 | 0.38 | 0.37 | 92 | 1016.4 |
| 20260901050047 | 68 | 209 | 0.0 | 0.0 | 0.30 | 0.32 | 0.31 | 92 | 1016.5 |
| 20260901044604 | 68 | 207 | 0.0 | 0.0 | 0.19 | 0.20 | 0.19 | 91 | 1016.6 |
| 20260901043045 | 68 | 207 | 0.0 | 0.0 | 0.12 | 0.13 | 0.12 | 91 | 1016.7 |
| 20260901041543 | 69 | 207 | 0.0 | 0.0 | 0.06 | 0.07 | 0.06 | 91 | 1016.7 |
| 20260901040143 | 69 | 207 | 0.0 | 0.0 | 0.01 | 0.02 | 0.01 | 90 | 1016.7 |
| 20260901034540 | 69 | 207 | 0.0 | 0.0 | 0.00 | 0.01 | 0.01 | 90 | 1016.7 |
| 20260901033039 | 69 | 207 | 0.0 | 0.0 | 0.00 | 0.01 | 0.01 | 89 | 1016.7 |
| 20260901031537 | 69 | 211 | 0.0 | 0.0 | 0.00 | 0.01 | 0.01 | 89 | 1016.9 |
| 20260901030039 | 69 | 211 | 0.0 | 0.0 | 0.00 | 0.01 | 0.01 | 89 | 1016.9 |
| 20260901024547 | 69 | 212 | 0.0 | 0.0 | 0.00 | 0.02 | 0.01 | 89 | 1017.2 |
| 20260901023038 | 69 | 212 | 0.0 | 0.0 | 0.00 | 0.02 | 0.01 | 88 | 1017.3 |
| 20260901021538 | 69 | 213 | 0.0 | 0.0 | 0.00 | 0.02 | 0.01 | 88 | 1017.3 |
| 20260901020037 | 70 | 213 | 0.0 | 0.0 | 0.00 | 0.02 | 0.01 | 87 | 1017.3 |
| 20260901014538 | 70 | 213 | 0.0 | 0.0 | 0.00 | 0.06 | 0.01 | 86 | 1017.4 |
| 20260901013035 | 70 | 213 | 0.0 | 0.0 | 0.00 | 0.06 | 0.01 | 86 | 1017.5 |
| 20260901011532 | 70 | 213 | 0.0 | 0.0 | 0.00 | 0.06 | 0.01 | 86 | 1017.4 |
| 20260901010035 | 70 | 213 | 0.0 | 0.0 | 0.00 | 0.06 | 0.01 | 85 | 1017.4 |
| 20260901004531 | 70 | 213 | 0.0 | 0.0 | 0.00 | 0.10 | 0.01 | 85 | 1017.3 |
| 20260901003034 | 70 | 213 | 0.0 | 0.0 | 0.00 | 0.10 | 0.01 | 85 | 1017.3 |
| 20260901001537 | 70 | 213 | 0.0 | 0.0 | 0.00 | 0.10 | 0.01 | 85 | 1017.2 |
| 20260901000029 | 70 | 212 | 0.0 | 0.0 | 0.00 | 0.10 | 0.01 | 85 | 1017.1 |
| 20260831234532 | 70 | 212 | 0.0 | 0.0 | 0.00 | 0.11 | 0.01 | 85 | 1017.2 |
| 20260831233029 | 71 | 212 | 0.0 | 0.0 | 0.00 | 0.11 | 0.01 | 85 | 1017.4 |
| 20260831231538 | 71 | 212 | 0.0 | 0.0 | 0.00 | 0.11 | 0.01 | 85 | 1017.5 |
| 20260831230128 | 71 | 212 | 0.0 | 0.0 | 0.00 | 0.11 | 0.01 | 84 | 1017.5 |
| 20260831224545 | 71 | 212 | 0.0 | 0.0 | 0.00 | 0.11 | 0.01 | 84 | 1017.5 |
| 20260831223025 | 71 | 212 | 0.0 | 0.0 | 0.00 | 0.11 | 0.01 | 84 | 1017.5 |
| 20260831221525 | 71 | 212 | 0.0 | 1.0 | 0.00 | 0.11 | 0.01 | 82 | 1017.7 |
| 20260831220023 | 72 | 205 | 0.0 | 0.0 | 0.00 | 0.11 | 0.01 | 82 | 1017.7 |
| 20260831214530 | 72 | 221 | 0.0 | 0.0 | 0.00 | 0.11 | 0.01 | 81 | 1017.6 |